Time;durP1;ratioP1;P1;durP2;ratioP2;P2;SDS_P1;SDS_P2;PMS_P1;PMS_P2;Temp;Humidity;BMP_temperature;BMP_pressure;BME280_temperature;BME280_humidity;BME280_pressure;Samples;Min_cycle;Max_cycle;Signal;HPM_P1;HPM_P2
2023/10/17 00:01:17;;;;;;;15.77;14.20;;;5.00;99.90;;;;;;4808989;29;20084;-76
2023/10/17 00:03:45;;;;;;;19.80;16.83;;;5.00;99.90;;;;;;4808108;29;20039;-75
2023/10/17 00:06:13;;;;;;;17.75;15.95;;;4.90;99.90;;;;;;4818810;29;20042;-75
2023/10/17 00:08:39;;;;;;;16.17;13.98;;;4.90;99.90;;;;;;4818756;29;20046;-75
2023/10/17 00:11:17;;;;;;;14.48;12.95;;;4.90;99.90;;;;;;4826914;29;20045;-76
2023/10/17 00:16:48;;;;;;;15.30;12.20;;;4.80;99.90;;;;;;4770691;30;20157;-75
2023/10/17 00:19:16;;;;;;;14.88;13.38;;;4.80;99.90;;;;;;4771686;30;20491;-75
2023/10/17 00:21:42;;;;;;;15.35;13.85;;;4.80;99.90;;;;;;4790923;29;20118;-75
2023/10/17 00:24:09;;;;;;;13.63;12.15;;;4.80;99.90;;;;;;4818353;29;20041;-76
2023/10/17 00:26:39;;;;;;;16.70;14.98;;;4.80;99.90;;;;;;4823640;29;20046;-75
2023/10/17 00:29:07;;;;;;;17.25;14.85;;;4.80;99.90;;;;;;4808640;29;20050;-75
2023/10/17 00:31:35;;;;;;;16.00;13.73;;;4.70;99.90;;;;;;4821426;29;20159;-76
2023/10/17 00:34:01;;;;;;;17.67;13.98;;;4.70;99.90;;;;;;4807132;29;20053;-75
2023/10/17 00:36:28;;;;;;;13.63;12.10;;;4.70;99.90;;;;;;4805099;29;20047;-75
2023/10/17 00:38:56;;;;;;;13.75;12.35;;;4.60;99.90;;;;;;4790368;29;20059;-75
2023/10/17 00:41:32;;;;;;;11.10;9.90;;;4.60;99.90;;;;;;4805348;29;20043;-75
2023/10/17 00:43:58;;;;;;;10.68;9.25;;;4.60;99.90;;;;;;4821912;29;20039;-75
2023/10/17 00:46:24;;;;;;;13.30;11.82;;;4.60;99.90;;;;;;4808041;29;20459;-75
2023/10/17 00:48:51;;;;;;;15.57;13.90;;;4.60;99.90;;;;;;4818949;29;20042;-75
2023/10/17 00:51:21;;;;;;;16.10;14.40;;;4.60;99.90;;;;;;4814839;29;20042;-75
2023/10/17 00:53:46;;;;;;;12.30;11.10;;;4.60;99.90;;;;;;4806067;29;20038;-75
2023/10/17 00:56:13;;;;;;;11.15;9.95;;;4.60;99.90;;;;;;4818883;29;20398;-75
2023/10/17 00:58:42;;;;;;;13.27;11.90;;;4.60;99.90;;;;;;4818089;29;20066;-75
2023/10/17 01:01:27;;;;;;;11.65;10.02;;;4.60;99.90;;;;;;4789639;29;20050;-75
2023/10/17 01:03:54;;;;;;;11.90;10.63;;;4.60;99.90;;;;;;4810155;29;20089;-75
2023/10/17 01:08:56;;;;;;;12.35;11.13;;;4.50;99.90;;;;;;4806723;29;20047;-75
2023/10/17 01:11:22;;;;;;;14.95;11.63;;;4.50;99.90;;;;;;4800244;29;20034;-75
2023/10/17 01:13:56;;;;;;;15.60;12.50;;;4.40;99.90;;;;;;4817863;29;20501;-75
2023/10/17 01:16:24;;;;;;;12.85;11.52;;;4.40;99.90;;;;;;4822668;29;20117;-75
2023/10/17 01:18:50;;;;;;;15.93;14.05;;;4.40;99.90;;;;;;4817799;29;20478;-75
2023/10/17 01:21:21;;;;;;;11.65;10.40;;;4.40;99.90;;;;;;4815234;29;20049;-75
2023/10/17 01:23:51;;;;;;;18.35;14.00;;;4.30;99.90;;;;;;4807651;29;20045;-75
2023/10/17 01:26:21;;;;;;;11.57;10.40;;;4.30;99.90;;;;;;4810935;29;20050;-76
2023/10/17 01:28:48;;;;;;;19.70;16.92;;;4.30;99.90;;;;;;4805704;29;20129;-76
2023/10/17 01:31:15;;;;;;;29.73;21.80;;;4.30;99.90;;;;;;4812576;29;20043;-75
2023/10/17 01:33:45;;;;;;;17.70;14.60;;;4.30;99.90;;;;;;4807753;29;20050;-75
2023/10/17 01:36:12;;;;;;;19.30;17.38;;;4.30;99.90;;;;;;4838967;23;20050;-81
2023/10/17 01:38:38;;;;;;;26.42;22.10;;;4.30;99.90;;;;;;4794318;29;20690;-81
2023/10/17 01:41:05;;;;;;;21.85;19.55;;;4.30;99.90;;;;;;4797070;29;20034;-80
2023/10/17 01:43:36;;;;;;;21.20;18.65;;;4.40;99.90;;;;;;4794350;29;20115;-81
2023/10/17 01:46:01;;;;;;;18.50;15.82;;;4.40;99.90;;;;;;4804567;29;20042;-81
2023/10/17 01:48:27;;;;;;;21.70;19.52;;;4.40;99.90;;;;;;4801756;29;20050;-81
2023/10/17 01:50:53;;;;;;;23.70;21.40;;;4.30;99.90;;;;;;4798676;29;20050;-81
2023/10/17 01:53:19;;;;;;;22.95;20.60;;;4.30;99.90;;;;;;4796729;29;20409;-81
2023/10/17 01:55:54;;;;;;;19.10;17.00;;;4.30;99.90;;;;;;4804039;29;20039;-81
2023/10/17 01:58:23;;;;;;;23.65;21.02;;;4.30;99.90;;;;;;4805384;29;20046;-81
2023/10/17 02:00:49;;;;;;;21.20;19.02;;;4.30;99.90;;;;;;4787979;29;20053;-81
2023/10/17 02:03:16;;;;;;;48.35;31.45;;;4.30;99.90;;;;;;4781507;29;20126;-81
2023/10/17 02:05:43;;;;;;;25.80;21.42;;;4.30;99.90;;;;;;4795404;29;20099;-81
2023/10/17 02:08:08;;;;;;;41.25;29.70;;;4.30;99.90;;;;;;4787605;29;20053;-81
2023/10/17 02:10:34;;;;;;;45.00;30.42;;;4.30;99.90;;;;;;4774231;29;20415;-81
2023/10/17 02:13:00;;;;;;;46.47;33.22;;;4.30;99.90;;;;;;4776311;29;20043;-81
2023/10/17 02:15:26;;;;;;;34.75;26.52;;;4.20;99.90;;;;;;4775691;29;20058;-81
2023/10/17 02:17:53;;;;;;;32.20;26.83;;;4.20;99.90;;;;;;4777680;29;20039;-81
2023/10/17 02:20:34;;;;;;;21.95;19.65;;;4.20;99.90;;;;;;4799346;29;20042;-81
2023/10/17 02:23:02;;;;;;;29.00;22.85;;;4.20;99.90;;;;;;4774879;29;20068;-81
2023/10/17 02:25:32;;;;;;;20.85;18.77;;;4.20;99.90;;;;;;4788719;29;20467;-81
2023/10/17 02:27:59;;;;;;;21.20;19.15;;;4.20;99.90;;;;;;4779350;29;20413;-81
2023/10/17 02:30:24;;;;;;;20.08;17.98;;;4.10;99.90;;;;;;4799053;29;20042;-81
2023/10/17 02:32:53;;;;;;;24.17;21.63;;;4.10;99.90;;;;;;4768581;29;20104;-81
2023/10/17 02:35:36;;;;;;;23.20;20.88;;;4.10;99.90;;;;;;4776323;29;20051;-81
2023/10/17 02:38:03;;;;;;;28.65;24.67;;;4.10;99.90;;;;;;4801614;29;20042;-81
2023/10/17 02:40:34;;;;;;;25.90;23.17;;;4.00;99.90;;;;;;4788848;29;20127;-81
2023/10/17 02:43:02;;;;;;;39.05;28.80;;;4.00;99.90;;;;;;4798300;29;20082;-81
2023/10/17 02:45:28;;;;;;;22.63;20.50;;;4.00;99.90;;;;;;4775456;29;20103;-81
2023/10/17 02:47:55;;;;;;;24.50;21.85;;;3.90;99.90;;;;;;4789012;29;20046;-81
2023/10/17 02:52:57;;;;;;;22.55;20.20;;;3.90;99.90;;;;;;4790152;29;20046;-81
2023/10/17 02:55:25;;;;;;;20.40;18.40;;;3.80;99.90;;;;;;4790940;29;20043;-81
2023/10/17 02:57:52;;;;;;;27.48;24.50;;;3.80;99.90;;;;;;4788688;29;20495;-81
2023/10/17 03:00:22;;;;;;;25.13;22.67;;;3.80;99.90;;;;;;4788632;29;20191;-81
2023/10/17 03:02:58;;;;;;;31.55;26.63;;;3.80;99.90;;;;;;4790133;29;20124;-81
2023/10/17 03:05:25;;;;;;;24.65;22.05;;;3.80;99.90;;;;;;4772535;29;20054;-81
2023/10/17 03:07:51;;;;;;;26.40;23.80;;;3.70;99.90;;;;;;4768275;30;20395;-81
2023/10/17 03:10:37;;;;;;;23.50;21.13;;;3.70;99.90;;;;;;4789168;29;20053;-81
2023/10/17 03:16:01;;;;;;;25.38;22.95;;;3.70;99.90;;;;;;4788391;29;20187;-81
2023/10/17 03:18:26;;;;;;;29.80;26.85;;;3.70;99.90;;;;;;4773455;29;20129;-81
2023/10/17 03:20:52;;;;;;;28.17;25.45;;;3.70;99.90;;;;;;4772613;29;20138;-81
2023/10/17 03:23:28;;;;;;;26.35;23.92;;;3.70;99.90;;;;;;4775461;29;20050;-81
2023/10/17 03:26:00;;;;;;;30.85;27.77;;;3.80;99.90;;;;;;4778533;29;20398;-81
2023/10/17 03:28:27;;;;;;;20.80;18.75;;;3.80;99.90;;;;;;4781151;29;20042;-81
2023/10/17 03:30:53;;;;;;;27.02;24.17;;;3.70;99.90;;;;;;4796033;29;20425;-81
2023/10/17 03:33:26;;;;;;;21.88;19.63;;;3.70;99.90;;;;;;4765094;29;20046;-81
2023/10/17 03:38:33;;;;;;;22.52;20.40;;;3.60;99.90;;;;;;4790736;29;20133;-81
2023/10/17 03:41:03;;;;;;;6.47;4.40;;;3.60;99.90;;;;;;4794391;29;20042;-81
2023/10/17 03:43:37;;;;;;;8.52;4.13;;;3.50;99.90;;;;;;4788360;29;20464;-81
2023/10/17 03:46:06;;;;;;;24.52;22.10;;;3.50;99.90;;;;;;4770897;29;20042;-81
2023/10/17 03:48:49;;;;;;;26.27;23.50;;;3.50;99.90;;;;;;4790085;29;20045;-81
2023/10/17 03:51:21;;;;;;;21.88;19.73;;;3.50;99.90;;;;;;4796665;29;20047;-81
2023/10/17 03:53:48;;;;;;;28.63;25.70;;;3.50;99.90;;;;;;4776113;29;20375;-81
2023/10/17 03:56:23;;;;;;;17.92;16.33;;;3.40;99.90;;;;;;4798314;29;20076;-81
2023/10/17 04:01:19;;;;;;;19.92;18.00;;;3.40;99.90;;;;;;4805453;29;20051;-81
2023/10/17 04:03:46;;;;;;;25.27;21.17;;;3.30;99.90;;;;;;4779621;29;20050;-82
2023/10/17 04:08:38;;;;;;;32.38;25.55;;;3.30;99.90;;;;;;4800885;29;20050;-81
2023/10/17 04:13:56;;;;;;;24.20;21.65;;;3.20;99.90;;;;;;4794329;29;20050;-81
2023/10/17 04:16:27;;;;;;;21.77;19.58;;;3.20;99.90;;;;;;4797532;29;20054;-82
2023/10/17 04:18:59;;;;;;;25.25;22.60;;;3.20;99.90;;;;;;4786063;29;20402;-81
2023/10/17 04:21:31;;;;;;;;;;;3.10;99.90;;;;;;4796411;29;20043;-82
2023/10/17 04:23:59;;;;;;;20.17;17.60;;;3.00;99.90;;;;;;4790129;29;20300;-82
2023/10/17 04:26:27;;;;;;;36.85;28.65;;;3.00;99.90;;;;;;4796846;29;20054;-82
2023/10/17 04:29:01;;;;;;;22.73;20.30;;;3.00;99.90;;;;;;4793723;29;20516;-82
2023/10/17 04:31:30;;;;;;;19.48;17.63;;;3.00;99.90;;;;;;4784577;29;20483;-81
2023/10/17 04:34:06;;;;;;;20.65;18.77;;;2.90;99.90;;;;;;4774317;29;20046;-81
2023/10/17 04:36:41;;;;;;;23.83;21.48;;;2.90;99.90;;;;;;4789729;29;20035;-81
2023/10/17 04:44:23;;;;;;;24.95;22.38;;;3.00;99.90;;;;;;4804681;29;20154;-81
2023/10/17 04:49:31;;;;;;;19.80;17.90;;;3.00;99.90;;;;;;4796550;29;20096;-82
2023/10/17 04:57:05;;;;;;;23.35;16.33;;;2.90;99.90;;;;;;4794003;29;20115;-81
2023/10/17 05:07:28;;;;;;;17.83;16.08;;;2.70;99.90;;;;;;4804657;29;20138;-81
2023/10/17 06:18:51;;;;;;;9.15;5.78;;;2.30;99.90;;;;;;4777857;29;20047;-82
2023/10/17 06:21:35;;;;;;;33.40;28.95;;;2.30;99.90;;;;;;4783912;29;20124;-82
2023/10/17 06:24:06;;;;;;;10.05;6.25;;;2.30;99.90;;;;;;4788717;29;20089;-82
2023/10/17 06:34:15;;;;;;;;;;;2.30;99.90;;;;;;4803710;29;20406;-82
2023/10/17 06:36:41;;;;;;;30.58;27.38;;;2.30;99.90;;;;;;4814142;29;19920;-82
2023/10/17 06:39:16;;;;;;;42.67;36.35;;;2.30;99.90;;;;;;4813224;29;20490;-81
2023/10/17 06:41:44;;;;;;;44.38;38.03;;;2.40;99.90;;;;;;4785846;29;20090;-82
2023/10/17 06:44:11;;;;;;;35.05;31.58;;;2.50;99.90;;;;;;4775315;29;20085;-82
2023/10/17 06:47:07;;;;;;;70.78;46.38;;;2.50;99.90;;;;;;4772073;29;20133;-83
2023/10/17 06:52:18;;;;;;;40.40;36.35;;;2.80;99.90;;;;;;4790387;29;20050;-83
2023/10/17 06:54:41;;;;;;;38.45;34.88;;;3.00;99.90;;;;;;4798819;29;20126;-83
2023/10/17 06:57:19;;;;;;;23.80;11.63;;;3.20;99.90;;;;;;4782906;29;20039;-83
2023/10/17 06:59:52;;;;;;;43.83;39.50;;;3.30;99.90;;;;;;4764910;30;20078;-83
2023/10/17 07:02:28;;;;;;;38.83;35.15;;;3.50;99.90;;;;;;4790628;29;20449;-83
2023/10/17 07:05:01;;;;;;;38.78;35.15;;;3.60;99.90;;;;;;4791403;29;20042;-82
2023/10/17 07:08:01;;;;;;;39.58;35.85;;;3.70;99.90;;;;;;4806912;29;20215;-82
2023/10/17 07:13:27;;;;;;;39.65;35.75;;;3.90;99.90;;;;;;4784192;29;20135;-82
2023/10/17 07:15:54;;;;;;;40.40;36.42;;;4.00;99.90;;;;;;4782185;29;20133;-82
2023/10/17 07:21:25;;;;;;;39.45;35.60;;;4.20;99.90;;;;;;4789591;29;20138;-83
2023/10/17 07:23:55;;;;;;;39.58;35.60;;;4.30;99.90;;;;;;4824736;29;20249;-83
2023/10/17 07:26:38;;;;;;;39.28;35.53;;;4.40;99.90;;;;;;4803286;29;20092;-83
2023/10/17 07:29:05;;;;;;;39.42;35.70;;;4.40;99.90;;;;;;4786110;29;20130;-82
2023/10/17 07:31:31;;;;;;;38.20;34.70;;;4.60;99.90;;;;;;4792208;29;20502;-81
2023/10/17 07:36:37;;;;;;;39.90;36.15;;;4.80;99.90;;;;;;4792047;29;20057;-83
2023/10/17 07:39:15;;;;;;;44.17;39.50;;;4.80;99.90;;;;;;4795272;29;20046;-83
2023/10/17 07:41:40;;;;;;;40.55;36.80;;;5.00;99.90;;;;;;4767171;29;20042;-84
2023/10/17 07:44:25;;;;;;;39.63;35.88;;;5.10;99.90;;;;;;4776586;29;20153;-84
2023/10/17 07:47:09;;;;;;;37.30;33.70;;;5.30;99.90;;;;;;4806289;29;20058;-84
2023/10/17 07:49:35;;;;;;;34.72;31.33;;;5.40;99.90;;;;;;4806665;29;20043;-84
2023/10/17 07:52:12;;;;;;;32.75;29.60;;;5.50;99.90;;;;;;4791764;29;20407;-84
2023/10/17 07:54:45;;;;;;;27.02;24.23;;;5.60;99.90;;;;;;4799352;29;20039;-84
2023/10/17 07:57:17;;;;;;;26.73;24.13;;;5.80;99.90;;;;;;4800332;29;20046;-84
2023/10/17 07:59:52;;;;;;;23.75;21.38;;;6.00;99.90;;;;;;4798793;29;20038;-84
2023/10/17 08:02:20;;;;;;;21.70;19.55;;;6.10;99.90;;;;;;4775672;29;20175;-83
2023/10/17 08:04:48;;;;;;;18.75;16.92;;;6.20;99.90;;;;;;4804949;29;20057;-84
2023/10/17 08:07:20;;;;;;;19.13;17.25;;;6.30;99.90;;;;;;4794510;29;20498;-82
2023/10/17 08:09:50;;;;;;;18.40;16.60;;;6.40;99.90;;;;;;4784151;29;20051;-82
2023/10/17 08:12:21;;;;;;;16.73;14.85;;;6.50;99.90;;;;;;4806699;29;20073;-83
2023/10/17 08:14:52;;;;;;;15.60;13.90;;;6.60;99.90;;;;;;4772674;29;20035;-83
2023/10/17 08:17:19;;;;;;;14.63;13.15;;;6.70;99.90;;;;;;4790199;29;20047;-82
2023/10/17 08:22:55;;;;;;;11.95;10.73;;;6.90;99.90;;;;;;4796074;29;20163;-83
2023/10/17 08:25:30;;;;;;;11.68;10.35;;;7.00;99.90;;;;;;4790148;29;20216;-82
2023/10/17 08:27:57;;;;;;;17.92;16.17;;;7.00;99.90;;;;;;4788750;29;20055;-82
2023/10/17 08:30:34;;;;;;;14.30;12.90;;;7.10;99.90;;;;;;4774680;29;20124;-81
2023/10/17 08:35:37;;;;;;;13.18;9.57;;;7.10;99.90;;;;;;4806808;29;20179;-82
2023/10/17 08:38:03;;;;;;;8.43;6.55;;;7.20;99.90;;;;;;4805612;29;20077;-83
2023/10/17 08:40:29;;;;;;;9.88;6.95;;;7.30;99.90;;;;;;4793839;29;20051;-83
2023/10/17 08:42:59;;;;;;;9.80;6.45;;;7.40;99.90;;;;;;4775258;30;20066;-82
2023/10/17 08:45:26;;;;;;;8.18;6.88;;;7.50;99.90;;;;;;4773108;29;20093;-82
2023/10/17 08:48:01;;;;;;;6.40;5.68;;;7.60;99.90;;;;;;4790410;29;20087;-82
2023/10/17 08:50:30;;;;;;;7.88;6.40;;;7.70;99.90;;;;;;4790579;29;20047;-82
2023/10/17 08:52:59;;;;;;;6.68;5.50;;;7.80;99.90;;;;;;4803634;29;20043;-82
2023/10/17 08:55:27;;;;;;;7.82;5.43;;;7.90;99.90;;;;;;4773512;29;20039;-82
2023/10/17 08:57:52;;;;;;;6.72;4.50;;;8.10;99.90;;;;;;4801110;29;20409;-83
2023/10/17 09:00:24;;;;;;;7.68;5.10;;;8.20;99.90;;;;;;4791612;29;20064;-82
2023/10/17 09:03:00;;;;;;;9.02;4.53;;;8.30;99.90;;;;;;4770236;29;20042;-83
2023/10/17 09:05:26;;;;;;;6.85;4.82;;;8.40;99.90;;;;;;4773411;29;20043;-82
2023/10/17 09:07:58;;;;;;;7.63;4.50;;;8.50;99.90;;;;;;4797728;29;20039;-82
2023/10/17 09:10:38;;;;;;;8.60;4.72;;;8.60;99.90;;;;;;4790185;29;20451;-82
2023/10/17 09:13:52;;;;;;;6.57;3.85;;;8.70;99.90;;;;;;4790011;29;20042;-82
2023/10/17 09:16:12;;;;;;;6.28;4.28;;;8.80;99.90;;;;;;4804600;29;20498;-82
2023/10/17 09:18:42;;;;;;;7.55;4.50;;;8.90;99.90;;;;;;4790891;29;20133;-82
2023/10/17 09:21:08;;;;;;;7.80;4.47;;;9.00;99.90;;;;;;4788074;29;20040;-82
2023/10/17 09:23:38;;;;;;;7.78;5.10;;;9.10;99.90;;;;;;4798016;29;20038;-82
2023/10/17 09:26:07;;;;;;;6.25;3.80;;;9.30;99.90;;;;;;4807809;29;20371;-82
2023/10/17 09:28:35;;;;;;;5.43;3.60;;;9.40;99.90;;;;;;4807676;29;20125;-82
2023/10/17 09:31:15;;;;;;;5.65;3.08;;;9.50;99.90;;;;;;4807573;29;20060;-82
2023/10/17 09:33:44;;;;;;;5.75;2.67;;;9.50;99.90;;;;;;4803434;29;20074;-83
2023/10/17 09:36:12;;;;;;;5.95;3.05;;;9.70;99.90;;;;;;4773397;29;20039;-82
2023/10/17 09:38:43;;;;;;;5.97;2.40;;;9.80;99.90;;;;;;4799005;29;20057;-84
2023/10/17 09:41:11;;;;;;;4.78;2.55;;;9.90;99.90;;;;;;4799772;29;20050;-83
2023/10/17 09:43:37;;;;;;;7.82;2.80;;;10.00;99.90;;;;;;4778765;29;20046;-83
2023/10/17 09:46:09;;;;;;;4.68;2.30;;;10.00;99.90;;;;;;4787902;29;20072;-87
2023/10/17 09:48:43;;;;;;;4.38;2.10;;;10.10;99.90;;;;;;4781022;29;20046;-83
2023/10/17 09:51:21;;;;;;;3.80;1.70;;;10.20;99.90;;;;;;4786182;30;20082;-85
2023/10/17 09:53:51;;;;;;;3.92;1.80;;;10.30;99.90;;;;;;4756914;30;20415;-84
2023/10/17 09:56:22;;;;;;;7.30;2.63;;;10.40;99.90;;;;;;4788428;29;20109;-82
2023/10/17 09:58:50;;;;;;;6.43;2.15;;;10.50;99.90;;;;;;4797600;29;20095;-85
2023/10/17 10:01:21;;;;;;;5.60;1.60;;;10.60;99.90;;;;;;4783153;29;20043;-86
2023/10/17 10:04:01;;;;;;;3.92;1.65;;;10.80;99.90;;;;;;4781783;29;20049;-83
2023/10/17 10:06:31;;;;;;;5.57;1.70;;;10.80;99.90;;;;;;4759519;29;20038;-83
2023/10/17 10:09:26;;;;;;;3.60;1.48;;;11.00;99.90;;;;;;4781544;29;20039;-84
2023/10/17 10:11:51;;;;;;;5.15;1.63;;;11.00;99.90;;;;;;4773035;29;20431;-84
2023/10/17 10:14:23;;;;;;;4.22;1.55;;;11.10;99.90;;;;;;4772609;29;20085;-82
2023/10/17 10:17:05;;;;;;;5.22;1.77;;;11.20;99.90;;;;;;4789196;29;20413;-82
2023/10/17 10:19:54;;;;;;;3.80;1.37;;;11.30;99.90;;;;;;4788937;29;20498;-82
2023/10/17 10:22:19;;;;;;;4.65;1.30;;;11.50;99.90;;;;;;4787101;29;20538;-82
2023/10/17 10:24:46;;;;;;;2.85;1.30;;;11.70;99.90;;;;;;4799590;29;20074;-82
2023/10/17 10:27:27;;;;;;;3.38;1.20;;;11.90;99.90;;;;;;4793818;29;20046;-81
2023/10/17 10:29:54;;;;;;;3.45;1.33;;;12.00;99.90;;;;;;4786005;29;20042;-82
2023/10/17 10:32:50;;;;;;;3.05;1.30;;;12.40;99.90;;;;;;4804025;29;20050;-81
2023/10/17 10:35:15;;;;;;;4.32;1.20;;;12.50;99.90;;;;;;4787402;29;20487;-82
2023/10/17 10:37:49;;;;;;;4.28;1.30;;;12.60;99.90;;;;;;4788775;29;20075;-82
2023/10/17 10:40:22;;;;;;;4.60;1.20;;;12.60;99.90;;;;;;4771966;29;20046;-82
2023/10/17 10:42:53;;;;;;;3.55;1.00;;;12.60;99.90;;;;;;4773193;29;20495;-82
2023/10/17 10:45:55;;;;;;;4.30;1.20;;;12.60;99.90;;;;;;4780920;29;20038;-82
2023/10/17 10:48:21;;;;;;;4.88;1.25;;;12.70;99.90;;;;;;4791045;29;20043;-82
2023/10/17 10:50:57;;;;;;;3.70;1.30;;;12.70;99.90;;;;;;4778214;29;20047;-82
2023/10/17 10:53:28;;;;;;;3.50;1.38;;;12.80;99.90;;;;;;4796485;29;20049;-82
2023/10/17 10:55:55;;;;;;;3.78;1.25;;;12.90;99.90;;;;;;4784756;29;20047;-82
2023/10/17 10:58:25;;;;;;;3.97;1.40;;;13.00;99.90;;;;;;4785641;29;20570;-82
2023/10/17 11:00:51;;;;;;;4.75;1.10;;;13.10;99.90;;;;;;4787833;29;20047;-82
2023/10/17 11:03:18;;;;;;;3.20;1.20;;;13.10;99.90;;;;;;4791219;29;20039;-82
2023/10/17 11:05:57;;;;;;;3.45;1.17;;;13.10;99.90;;;;;;4795166;29;20047;-82
2023/10/17 11:08:24;;;;;;;2.33;0.85;;;13.10;99.90;;;;;;4790975;29;20143;-82
2023/10/17 11:10:50;;;;;;;3.78;1.20;;;13.10;99.90;;;;;;4799667;29;20101;-82
2023/10/17 11:13:16;;;;;;;4.95;1.23;;;13.20;99.90;;;;;;4792129;29;20043;-82
2023/10/17 11:15:43;;;;;;;3.10;1.17;;;13.20;99.90;;;;;;4792129;29;20050;-83
2023/10/17 11:18:10;;;;;;;2.90;0.95;;;13.20;99.90;;;;;;4793857;29;20498;-82
2023/10/17 11:20:36;;;;;;;2.63;1.30;;;13.30;99.90;;;;;;4784868;29;20524;-83
2023/10/17 11:23:08;;;;;;;3.55;1.30;;;13.30;99.90;;;;;;4776738;29;20074;-82
2023/10/17 11:25:34;;;;;;;4.75;1.30;;;13.50;99.90;;;;;;4800299;29;20043;-81
2023/10/17 11:28:06;;;;;;;4.97;1.20;;;13.50;99.90;;;;;;4810001;29;20078;-83
2023/10/17 11:30:40;;;;;;;3.85;0.98;;;13.60;99.90;;;;;;4792064;29;20054;-82
2023/10/17 11:33:10;;;;;;;2.92;1.10;;;13.80;99.90;;;;;;4779636;29;20078;-84
2023/10/17 11:35:37;;;;;;;4.35;1.00;;;13.80;99.90;;;;;;4774582;29;20047;-82
2023/10/17 11:38:03;;;;;;;4.18;1.05;;;13.90;99.90;;;;;;4779202;29;20066;-82
2023/10/17 11:41:07;;;;;;;3.58;1.20;;;13.70;99.90;;;;;;4793700;29;20582;-82
2023/10/17 11:43:28;;;;;;;3.03;1.00;;;13.60;99.90;;;;;;4792741;29;20051;-82
2023/10/17 11:45:56;;;;;;;2.95;1.10;;;13.60;99.90;;;;;;4789526;29;20050;-82
2023/10/17 11:48:36;;;;;;;4.47;1.40;;;13.50;99.90;;;;;;4807002;29;20086;-82
2023/10/17 11:51:18;;;;;;;3.47;1.17;;;13.60;99.90;;;;;;4807139;29;20046;-82
2023/10/17 11:54:22;;;;;;;5.68;1.27;;;13.60;99.90;;;;;;4787591;29;20080;-82
2023/10/17 11:56:48;;;;;;;;;;;13.60;99.90;;;;;;4743980;30;20436;-82
2023/10/17 11:59:18;;;;;;;4.20;1.33;;;13.70;99.90;;;;;;4778631;29;19928;-82
2023/10/17 12:01:45;;;;;;;4.05;1.30;;;13.80;99.90;;;;;;4797481;29;20082;-82
2023/10/17 12:04:11;;;;;;;3.03;1.30;;;13.80;99.90;;;;;;4795813;29;20039;-82
2023/10/17 12:06:39;;;;;;;4.20;1.33;;;13.70;99.90;;;;;;4783521;29;20392;-82
2023/10/17 12:09:18;;;;;;;3.05;1.20;;;13.70;99.90;;;;;;4791184;29;20050;-81
2023/10/17 12:11:51;;;;;;;3.80;1.63;;;13.80;99.90;;;;;;4790603;29;20042;-82
2023/10/17 12:14:21;;;;;;;3.22;1.40;;;13.80;99.90;;;;;;4787942;29;20037;-82
2023/10/17 12:16:48;;;;;;;3.28;1.10;;;13.80;99.90;;;;;;4789593;29;20094;-82
2023/10/17 12:19:17;;;;;;;3.45;1.05;;;13.70;99.90;;;;;;4801784;29;20442;-82
2023/10/17 12:21:48;;;;;;;2.35;1.02;;;13.60;99.90;;;;;;4808948;29;20133;-81
2023/10/17 12:24:19;;;;;;;3.55;1.60;;;13.50;99.90;;;;;;4787502;29;20392;-83
2023/10/17 12:26:49;;;;;;;2.67;1.20;;;13.40;99.90;;;;;;4790169;29;20079;-83
2023/10/17 12:29:19;;;;;;;3.08;1.00;;;13.40;99.90;;;;;;4779760;29;20050;-84
2023/10/17 12:31:45;;;;;;;3.55;1.17;;;13.40;99.90;;;;;;4790217;29;20043;-83
2023/10/17 12:34:15;;;;;;;3.60;1.10;;;13.50;99.90;;;;;;4775704;29;20126;-84
2023/10/17 12:36:41;;;;;;;4.07;1.10;;;13.40;99.90;;;;;;4789627;29;20042;-83
2023/10/17 12:39:06;;;;;;;3.38;1.23;;;13.40;99.90;;;;;;4797563;29;20042;-82
2023/10/17 12:41:34;;;;;;;2.65;1.00;;;13.20;99.60;;;;;;4791952;29;20046;-82
2023/10/17 12:43:59;;;;;;;3.08;1.20;;;13.10;99.90;;;;;;4790607;29;20050;-82
2023/10/17 12:46:25;;;;;;;3.25;1.20;;;13.00;99.90;;;;;;4790519;29;20050;-82
2023/10/17 12:48:51;;;;;;;3.33;1.20;;;13.10;99.90;;;;;;4779794;29;20554;-82
2023/10/17 12:51:23;;;;;;;4.28;1.50;;;13.00;99.90;;;;;;4801097;29;20046;-82
2023/10/17 12:53:51;;;;;;;4.22;1.23;;;13.10;99.90;;;;;;4808618;29;20046;-82
2023/10/17 12:56:20;;;;;;;4.20;1.60;;;13.20;99.90;;;;;;4808354;29;20125;-82
2023/10/17 12:58:55;;;;;;;3.10;1.40;;;13.20;95.60;;;;;;4808426;29;20049;-82
2023/10/17 13:01:25;;;;;;;2.88;1.50;;;13.20;99.90;;;;;;4808456;29;20046;-82
2023/10/17 13:03:57;;;;;;;3.03;1.48;;;13.40;99.90;;;;;;4796469;29;20128;-82
2023/10/17 13:06:46;;;;;;;3.13;1.50;;;13.60;96.40;;;;;;4805619;29;20386;-81
2023/10/17 13:09:11;;;;;;;2.35;1.33;;;13.60;97.00;;;;;;4803005;29;20316;-81
2023/10/17 13:11:37;;;;;;;4.93;2.25;;;13.70;94.50;;;;;;4808059;29;20131;-82
2023/10/17 13:14:05;;;;;;;2.38;1.42;;;13.80;97.90;;;;;;4808401;29;20498;-82
2023/10/17 13:16:35;;;;;;;4.07;1.52;;;14.00;91.80;;;;;;4792744;29;20046;-82
2023/10/17 13:19:06;;;;;;;3.72;1.80;;;14.10;95.30;;;;;;4781187;29;20095;-82
2023/10/17 13:21:36;;;;;;;4.35;1.50;;;14.30;90.40;;;;;;4800478;29;20043;-82
2023/10/17 13:24:05;;;;;;;3.88;1.77;;;14.20;87.90;;;;;;4807079;29;20047;-83
2023/10/17 13:26:37;;;;;;;4.03;1.75;;;14.50;94.50;;;;;;4807660;29;20394;-82
2023/10/17 13:29:05;;;;;;;6.55;1.80;;;14.50;91.20;;;;;;4797733;29;20126;-82
2023/10/17 13:31:31;;;;;;;3.35;1.90;;;14.40;87.00;;;;;;4803614;29;20122;-82
2023/10/17 13:34:04;;;;;;;2.40;1.77;;;14.40;93.80;;;;;;4802073;29;20077;-82
2023/10/17 13:36:35;;;;;;;;;;;14.70;96.30;;;;;;4808474;29;20379;-83
2023/10/17 13:39:05;;;;;;;4.45;1.83;;;15.00;93.00;;;;;;4807750;29;19921;-83
2023/10/17 13:41:31;;;;;;;2.85;1.60;;;14.80;79.60;;;;;;4785401;29;20042;-83
2023/10/17 13:43:56;;;;;;;5.03;1.60;;;14.60;88.80;;;;;;4802091;29;20512;-83
2023/10/17 13:46:32;;;;;;;4.50;1.80;;;14.40;88.10;;;;;;5089127;27;20786;-83
2023/10/17 13:49:02;;;;;;;3.33;1.80;;;14.20;85.10;;;;;;5088226;28;20420;-83
2023/10/17 13:51:34;;;;;;;3.38;1.75;;;13.80;96.40;;;;;;5080625;28;20075;-83
2023/10/17 13:54:00;;;;;;;4.43;1.73;;;13.60;93.50;;;;;;5068883;28;20028;-83
2023/10/17 13:56:27;;;;;;;3.45;1.70;;;13.40;99.90;;;;;;5087940;28;20278;-81
2023/10/17 13:58:53;;;;;;;3.03;1.40;;;13.20;96.90;;;;;;5088144;28;20086;-81
2023/10/17 14:01:28;;;;;;;4.30;2.00;;;13.00;99.90;;;;;;5062135;28;20503;-82
2023/10/17 14:03:55;;;;;;;3.42;1.58;;;12.70;99.90;;;;;;5084577;28;20525;-82
2023/10/17 14:06:21;;;;;;;4.47;1.70;;;12.60;99.90;;;;;;5087575;28;20036;-82
2023/10/17 14:08:47;;;;;;;3.28;1.50;;;12.40;99.90;;;;;;5060473;28;20044;-84
2023/10/17 14:11:17;;;;;;;4.35;1.80;;;12.30;99.90;;;;;;5067346;28;20028;-84
2023/10/17 14:13:45;;;;;;;3.78;1.60;;;12.20;99.90;;;;;;5087169;28;20036;-83
2023/10/17 14:16:13;;;;;;;4.45;1.90;;;12.20;99.90;;;;;;5070522;28;20105;-84
2023/10/17 14:18:46;;;;;;;4.47;1.75;;;12.10;99.90;;;;;;5086025;28;20397;-83
2023/10/17 14:24:06;;;;;;;3.25;1.77;;;12.00;99.90;;;;;;5080886;28;20062;-84
2023/10/17 14:26:33;;;;;;;3.33;1.80;;;11.80;99.90;;;;;;5065803;28;20047;-83
2023/10/17 14:29:00;;;;;;;4.18;2.10;;;11.80;99.90;;;;;;5087302;28;20126;-83
2023/10/17 14:31:29;;;;;;;3.03;1.50;;;11.70;99.90;;;;;;5085162;28;20043;-82
2023/10/17 14:33:55;;;;;;;4.88;1.98;;;11.70;99.90;;;;;;5076764;28;20072;-82
2023/10/17 14:36:21;;;;;;;6.28;1.80;;;11.70;99.90;;;;;;5062270;28;20037;-83
2023/10/17 14:38:52;;;;;;;4.22;1.85;;;11.70;99.90;;;;;;5081938;28;20455;-83
2023/10/17 14:41:17;;;;;;;3.78;1.70;;;11.70;99.90;;;;;;5062170;28;20041;-83
2023/10/17 14:43:54;;;;;;;3.10;1.50;;;11.60;99.90;;;;;;5063220;28;20042;-86
2023/10/17 14:46:20;;;;;;;2.70;1.25;;;11.60;99.90;;;;;;5086113;28;20044;-83
2023/10/17 14:48:47;;;;;;;4.75;1.55;;;11.60;99.90;;;;;;5070160;28;20161;-83
2023/10/17 14:51:13;;;;;;;4.80;1.63;;;11.60;99.90;;;;;;5070201;28;20468;-84
2023/10/17 14:53:43;;;;;;;4.28;1.58;;;11.50;99.90;;;;;;5087038;28;20636;-83
2023/10/17 14:56:12;;;;;;;5.65;1.40;;;11.50;99.90;;;;;;5066148;28;20036;-85
2023/10/17 14:58:42;;;;;;;4.55;1.60;;;11.50;99.90;;;;;;5065320;28;20051;-83
2023/10/17 15:01:10;;;;;;;6.78;1.70;;;11.40;99.90;;;;;;5067401;28;20089;-84
2023/10/17 15:03:36;;;;;;;6.30;1.50;;;11.30;99.90;;;;;;5056639;28;20045;-83
2023/10/17 15:06:06;;;;;;;5.43;1.58;;;11.20;99.90;;;;;;5056128;28;20047;-82
2023/10/17 15:08:35;;;;;;;3.85;1.40;;;11.20;99.90;;;;;;5073980;28;20058;-82
2023/10/17 15:11:10;;;;;;;5.82;1.95;;;11.10;99.90;;;;;;5056230;28;20041;-82
2023/10/17 15:13:37;;;;;;;2.95;1.30;;;11.10;99.90;;;;;;5047044;28;20479;-83
2023/10/17 15:16:12;;;;;;;3.13;1.80;;;11.20;99.90;;;;;;5062951;28;20495;-84
2023/10/17 15:18:38;;;;;;;3.70;1.75;;;11.10;99.90;;;;;;5064050;28;20049;-83